sensor_id;sensor_type;location;lat;lon;timestamp;P1;durP1;ratioP1;P2;durP2;ratioP2
26484;SDS011;18083;50.560;7.262;2024-01-30T00:00:33;20.77;;;12.27;;
26484;SDS011;18083;50.560;7.262;2024-01-30T00:03:00;20.50;;;13.00;;
26484;SDS011;18083;50.560;7.262;2024-01-30T00:05:28;27.47;;;14.17;;
26484;SDS011;18083;50.560;7.262;2024-01-30T00:07:55;18.03;;;13.40;;
26484;SDS011;18083;50.560;7.262;2024-01-30T00:10:22;17.57;;;13.80;;
26484;SDS011;18083;50.560;7.262;2024-01-30T00:12:49;22.23;;;14.07;;
26484;SDS011;18083;50.560;7.262;2024-01-30T00:15:17;19.57;;;12.30;;
26484;SDS011;18083;50.560;7.262;2024-01-30T00:17:44;15.83;;;12.33;;
26484;SDS011;18083;50.560;7.262;2024-01-30T00:20:11;20.87;;;12.67;;
26484;SDS011;18083;50.560;7.262;2024-01-30T00:22:39;19.27;;;12.57;;
26484;SDS011;18083;50.560;7.262;2024-01-30T00:25:06;25.67;;;14.10;;
26484;SDS011;18083;50.560;7.262;2024-01-30T00:27:33;22.57;;;12.00;;
26484;SDS011;18083;50.560;7.262;2024-01-30T00:30:01;20.37;;;12.97;;
26484;SDS011;18083;50.560;7.262;2024-01-30T00:32:28;22.93;;;12.37;;
26484;SDS011;18083;50.560;7.262;2024-01-30T00:34:55;20.43;;;12.80;;
26484;SDS011;18083;50.560;7.262;2024-01-30T00:37:23;22.07;;;12.17;;
26484;SDS011;18083;50.560;7.262;2024-01-30T00:39:50;20.73;;;12.87;;
26484;SDS011;18083;50.560;7.262;2024-01-30T00:42:17;19.57;;;12.83;;
26484;SDS011;18083;50.560;7.262;2024-01-30T00:44:45;20.83;;;13.27;;
26484;SDS011;18083;50.560;7.262;2024-01-30T00:47:13;22.07;;;12.63;;
26484;SDS011;18083;50.560;7.262;2024-01-30T00:49:40;18.70;;;12.03;;
26484;SDS011;18083;50.560;7.262;2024-01-30T00:52:07;17.77;;;12.67;;
26484;SDS011;18083;50.560;7.262;2024-01-30T00:54:35;22.27;;;13.73;;
26484;SDS011;18083;50.560;7.262;2024-01-30T00:57:02;19.33;;;14.00;;
26484;SDS011;18083;50.560;7.262;2024-01-30T00:59:29;25.43;;;15.33;;
26484;SDS011;18083;50.560;7.262;2024-01-30T01:01:57;23.80;;;13.90;;
26484;SDS011;18083;50.560;7.262;2024-01-30T01:04:24;20.83;;;14.20;;
26484;SDS011;18083;50.560;7.262;2024-01-30T01:06:53;19.03;;;12.37;;
26484;SDS011;18083;50.560;7.262;2024-01-30T01:09:20;19.77;;;14.03;;
26484;SDS011;18083;50.560;7.262;2024-01-30T01:11:47;18.40;;;12.53;;
26484;SDS011;18083;50.560;7.262;2024-01-30T01:14:15;19.27;;;13.90;;
26484;SDS011;18083;50.560;7.262;2024-01-30T01:16:42;18.87;;;15.40;;
26484;SDS011;18083;50.560;7.262;2024-01-30T01:19:09;20.73;;;13.83;;
26484;SDS011;18083;50.560;7.262;2024-01-30T01:21:37;26.10;;;14.67;;
26484;SDS011;18083;50.560;7.262;2024-01-30T01:24:04;20.97;;;14.17;;
26484;SDS011;18083;50.560;7.262;2024-01-30T01:26:31;23.37;;;15.73;;
26484;SDS011;18083;50.560;7.262;2024-01-30T01:28:58;23.33;;;13.37;;
26484;SDS011;18083;50.560;7.262;2024-01-30T01:31:26;22.07;;;14.03;;
26484;SDS011;18083;50.560;7.262;2024-01-30T01:33:55;21.37;;;14.50;;
26484;SDS011;18083;50.560;7.262;2024-01-30T01:36:22;21.13;;;13.13;;
26484;SDS011;18083;50.560;7.262;2024-01-30T01:38:49;19.87;;;13.10;;
26484;SDS011;18083;50.560;7.262;2024-01-30T01:41:17;20.73;;;14.67;;
26484;SDS011;18083;50.560;7.262;2024-01-30T01:43:44;17.27;;;14.23;;
26484;SDS011;18083;50.560;7.262;2024-01-30T01:46:11;23.77;;;14.30;;
26484;SDS011;18083;50.560;7.262;2024-01-30T01:48:39;22.47;;;13.83;;
26484;SDS011;18083;50.560;7.262;2024-01-30T01:51:06;18.93;;;13.03;;
26484;SDS011;18083;50.560;7.262;2024-01-30T01:53:34;19.53;;;14.53;;
26484;SDS011;18083;50.560;7.262;2024-01-30T01:56:01;21.13;;;14.50;;
26484;SDS011;18083;50.560;7.262;2024-01-30T01:58:29;22.70;;;14.43;;
26484;SDS011;18083;50.560;7.262;2024-01-30T02:00:56;18.90;;;13.33;;
26484;SDS011;18083;50.560;7.262;2024-01-30T02:03:24;22.53;;;14.00;;
26484;SDS011;18083;50.560;7.262;2024-01-30T02:05:51;21.13;;;14.87;;
26484;SDS011;18083;50.560;7.262;2024-01-30T02:08:19;20.43;;;15.97;;
26484;SDS011;18083;50.560;7.262;2024-01-30T02:10:46;22.07;;;14.80;;
26484;SDS011;18083;50.560;7.262;2024-01-30T02:13:14;21.87;;;13.97;;
26484;SDS011;18083;50.560;7.262;2024-01-30T02:15:41;21.07;;;13.20;;
26484;SDS011;18083;50.560;7.262;2024-01-30T02:18:08;21.43;;;14.13;;
26484;SDS011;18083;50.560;7.262;2024-01-30T02:20:35;22.50;;;13.90;;
26484;SDS011;18083;50.560;7.262;2024-01-30T02:23:05;20.93;;;14.30;;
26484;SDS011;18083;50.560;7.262;2024-01-30T02:25:35;21.33;;;14.03;;
26484;SDS011;18083;50.560;7.262;2024-01-30T02:28:02;26.03;;;15.33;;
26484;SDS011;18083;50.560;7.262;2024-01-30T02:30:30;20.23;;;13.90;;
26484;SDS011;18083;50.560;7.262;2024-01-30T02:32:57;23.37;;;15.00;;
26484;SDS011;18083;50.560;7.262;2024-01-30T02:35:24;21.20;;;13.93;;
26484;SDS011;18083;50.560;7.262;2024-01-30T02:37:52;21.47;;;14.00;;
26484;SDS011;18083;50.560;7.262;2024-01-30T02:40:19;20.67;;;14.07;;
26484;SDS011;18083;50.560;7.262;2024-01-30T02:42:46;24.20;;;14.17;;
26484;SDS011;18083;50.560;7.262;2024-01-30T02:45:14;21.07;;;14.17;;
26484;SDS011;18083;50.560;7.262;2024-01-30T02:47:41;21.33;;;14.87;;
26484;SDS011;18083;50.560;7.262;2024-01-30T02:50:08;29.17;;;15.93;;
26484;SDS011;18083;50.560;7.262;2024-01-30T02:52:36;18.67;;;13.40;;
26484;SDS011;18083;50.560;7.262;2024-01-30T02:55:03;22.07;;;14.63;;
26484;SDS011;18083;50.560;7.262;2024-01-30T02:57:30;21.33;;;14.30;;
26484;SDS011;18083;50.560;7.262;2024-01-30T02:59:58;22.20;;;15.07;;
26484;SDS011;18083;50.560;7.262;2024-01-30T03:02:25;20.00;;;15.23;;
26484;SDS011;18083;50.560;7.262;2024-01-30T03:04:52;22.07;;;14.33;;
26484;SDS011;18083;50.560;7.262;2024-01-30T03:07:20;25.37;;;17.30;;
26484;SDS011;18083;50.560;7.262;2024-01-30T03:09:47;20.20;;;15.77;;
26484;SDS011;18083;50.560;7.262;2024-01-30T03:12:14;20.40;;;14.03;;
26484;SDS011;18083;50.560;7.262;2024-01-30T03:14:41;22.73;;;15.93;;
26484;SDS011;18083;50.560;7.262;2024-01-30T03:17:09;27.10;;;15.80;;
26484;SDS011;18083;50.560;7.262;2024-01-30T03:19:36;22.07;;;13.00;;
26484;SDS011;18083;50.560;7.262;2024-01-30T03:22:03;20.57;;;13.23;;
26484;SDS011;18083;50.560;7.262;2024-01-30T03:24:30;23.00;;;15.80;;
26484;SDS011;18083;50.560;7.262;2024-01-30T03:26:58;20.87;;;14.80;;
26484;SDS011;18083;50.560;7.262;2024-01-30T03:29:25;22.23;;;14.77;;
26484;SDS011;18083;50.560;7.262;2024-01-30T03:31:52;23.10;;;14.70;;
26484;SDS011;18083;50.560;7.262;2024-01-30T03:34:20;30.07;;;17.20;;
26484;SDS011;18083;50.560;7.262;2024-01-30T03:36:48;25.70;;;14.83;;
26484;SDS011;18083;50.560;7.262;2024-01-30T03:39:15;21.97;;;14.90;;
26484;SDS011;18083;50.560;7.262;2024-01-30T03:41:42;23.07;;;14.13;;
26484;SDS011;18083;50.560;7.262;2024-01-30T03:44:10;26.90;;;15.20;;
26484;SDS011;18083;50.560;7.262;2024-01-30T03:46:38;24.60;;;15.60;;
26484;SDS011;18083;50.560;7.262;2024-01-30T03:49:05;24.30;;;15.50;;
26484;SDS011;18083;50.560;7.262;2024-01-30T03:51:32;22.17;;;15.33;;
26484;SDS011;18083;50.560;7.262;2024-01-30T03:53:59;23.60;;;15.43;;
26484;SDS011;18083;50.560;7.262;2024-01-30T03:56:27;24.70;;;14.57;;
26484;SDS011;18083;50.560;7.262;2024-01-30T03:58:54;26.00;;;14.60;;
26484;SDS011;18083;50.560;7.262;2024-01-30T04:01:22;24.87;;;15.87;;
26484;SDS011;18083;50.560;7.262;2024-01-30T04:03:49;24.70;;;15.00;;
26484;SDS011;18083;50.560;7.262;2024-01-30T04:06:16;23.17;;;15.20;;
26484;SDS011;18083;50.560;7.262;2024-01-30T04:08:43;22.73;;;14.20;;
26484;SDS011;18083;50.560;7.262;2024-01-30T04:11:11;23.10;;;16.20;;
26484;SDS011;18083;50.560;7.262;2024-01-30T04:13:38;24.73;;;15.43;;
26484;SDS011;18083;50.560;7.262;2024-01-30T04:16:05;28.17;;;14.23;;
26484;SDS011;18083;50.560;7.262;2024-01-30T04:18:33;25.03;;;16.97;;
26484;SDS011;18083;50.560;7.262;2024-01-30T04:21:00;22.80;;;16.30;;
26484;SDS011;18083;50.560;7.262;2024-01-30T04:23:27;22.63;;;16.00;;
26484;SDS011;18083;50.560;7.262;2024-01-30T04:25:55;30.73;;;16.13;;
26484;SDS011;18083;50.560;7.262;2024-01-30T04:28:22;21.03;;;14.90;;
26484;SDS011;18083;50.560;7.262;2024-01-30T04:30:49;20.77;;;14.47;;
26484;SDS011;18083;50.560;7.262;2024-01-30T04:33:17;25.13;;;15.43;;
26484;SDS011;18083;50.560;7.262;2024-01-30T04:38:47;22.00;;;14.13;;
26484;SDS011;18083;50.560;7.262;2024-01-30T04:41:15;22.17;;;14.43;;
26484;SDS011;18083;50.560;7.262;2024-01-30T04:43:42;22.40;;;14.93;;
26484;SDS011;18083;50.560;7.262;2024-01-30T04:46:09;27.00;;;16.20;;
26484;SDS011;18083;50.560;7.262;2024-01-30T04:48:37;22.50;;;14.83;;
26484;SDS011;18083;50.560;7.262;2024-01-30T04:51:04;26.37;;;15.43;;
26484;SDS011;18083;50.560;7.262;2024-01-30T04:53:31;27.00;;;14.60;;
26484;SDS011;18083;50.560;7.262;2024-01-30T04:55:59;23.60;;;14.70;;
26484;SDS011;18083;50.560;7.262;2024-01-30T04:58:26;22.80;;;14.97;;
26484;SDS011;18083;50.560;7.262;2024-01-30T05:00:53;20.60;;;14.40;;
26484;SDS011;18083;50.560;7.262;2024-01-30T05:03:21;22.83;;;16.27;;
26484;SDS011;18083;50.560;7.262;2024-01-30T05:05:49;21.00;;;14.00;;
26484;SDS011;18083;50.560;7.262;2024-01-30T05:08:16;25.77;;;17.27;;
26484;SDS011;18083;50.560;7.262;2024-01-30T05:10:44;22.73;;;16.20;;
26484;SDS011;18083;50.560;7.262;2024-01-30T05:13:12;24.77;;;18.40;;
26484;SDS011;18083;50.560;7.262;2024-01-30T05:15:40;25.53;;;17.20;;
26484;SDS011;18083;50.560;7.262;2024-01-30T05:18:08;20.17;;;14.57;;
26484;SDS011;18083;50.560;7.262;2024-01-30T05:20:35;24.07;;;15.77;;
26484;SDS011;18083;50.560;7.262;2024-01-30T05:23:02;27.80;;;15.30;;
26484;SDS011;18083;50.560;7.262;2024-01-30T05:25:30;26.23;;;17.17;;
26484;SDS011;18083;50.560;7.262;2024-01-30T05:27:57;30.07;;;16.30;;
26484;SDS011;18083;50.560;7.262;2024-01-30T05:30:24;24.97;;;15.07;;
26484;SDS011;18083;50.560;7.262;2024-01-30T05:32:52;20.50;;;14.33;;
26484;SDS011;18083;50.560;7.262;2024-01-30T05:35:19;27.43;;;14.50;;
26484;SDS011;18083;50.560;7.262;2024-01-30T05:37:50;24.07;;;15.30;;
26484;SDS011;18083;50.560;7.262;2024-01-30T05:46:30;20.93;;;15.47;;
26484;SDS011;18083;50.560;7.262;2024-01-30T05:49:01;26.90;;;15.43;;
26484;SDS011;18083;50.560;7.262;2024-01-30T05:51:27;23.47;;;15.23;;
26484;SDS011;18083;50.560;7.262;2024-01-30T05:59:56;24.67;;;16.07;;
26484;SDS011;18083;50.560;7.262;2024-01-30T06:08:15;25.57;;;17.43;;
26484;SDS011;18083;50.560;7.262;2024-01-30T06:10:42;23.13;;;15.80;;
26484;SDS011;18083;50.560;7.262;2024-01-30T06:13:10;25.70;;;14.17;;
26484;SDS011;18083;50.560;7.262;2024-01-30T06:15:37;21.67;;;15.83;;
26484;SDS011;18083;50.560;7.262;2024-01-30T06:18:05;25.47;;;17.60;;
26484;SDS011;18083;50.560;7.262;2024-01-30T06:20:32;30.17;;;18.37;;
26484;SDS011;18083;50.560;7.262;2024-01-30T06:22:59;25.90;;;16.70;;
26484;SDS011;18083;50.560;7.262;2024-01-30T06:25:27;30.07;;;16.13;;
26484;SDS011;18083;50.560;7.262;2024-01-30T06:27:54;27.83;;;17.47;;
26484;SDS011;18083;50.560;7.262;2024-01-30T06:30:21;29.47;;;16.93;;
26484;SDS011;18083;50.560;7.262;2024-01-30T06:32:48;26.43;;;16.07;;
26484;SDS011;18083;50.560;7.262;2024-01-30T06:35:16;29.23;;;17.87;;
26484;SDS011;18083;50.560;7.262;2024-01-30T06:37:44;26.87;;;17.73;;
26484;SDS011;18083;50.560;7.262;2024-01-30T06:40:11;29.30;;;16.13;;
26484;SDS011;18083;50.560;7.262;2024-01-30T06:42:39;23.10;;;15.40;;
26484;SDS011;18083;50.560;7.262;2024-01-30T06:45:06;21.73;;;15.77;;
26484;SDS011;18083;50.560;7.262;2024-01-30T06:47:34;26.37;;;16.37;;
26484;SDS011;18083;50.560;7.262;2024-01-30T06:50:01;28.80;;;17.87;;
26484;SDS011;18083;50.560;7.262;2024-01-30T06:52:29;32.60;;;18.47;;
26484;SDS011;18083;50.560;7.262;2024-01-30T06:54:56;28.67;;;16.83;;
26484;SDS011;18083;50.560;7.262;2024-01-30T06:57:24;30.27;;;18.53;;
26484;SDS011;18083;50.560;7.262;2024-01-30T06:59:52;25.00;;;16.37;;
26484;SDS011;18083;50.560;7.262;2024-01-30T07:02:19;26.80;;;16.40;;
26484;SDS011;18083;50.560;7.262;2024-01-30T07:04:46;29.90;;;17.97;;
26484;SDS011;18083;50.560;7.262;2024-01-30T07:07:14;28.67;;;16.47;;
26484;SDS011;18083;50.560;7.262;2024-01-30T07:09:41;30.90;;;17.27;;
26484;SDS011;18083;50.560;7.262;2024-01-30T07:12:08;27.90;;;17.73;;
26484;SDS011;18083;50.560;7.262;2024-01-30T07:14:36;25.60;;;17.07;;
26484;SDS011;18083;50.560;7.262;2024-01-30T07:17:03;24.53;;;16.87;;
26484;SDS011;18083;50.560;7.262;2024-01-30T07:19:30;29.67;;;16.87;;
26484;SDS011;18083;50.560;7.262;2024-01-30T07:21:58;27.10;;;19.20;;
26484;SDS011;18083;50.560;7.262;2024-01-30T07:24:25;31.50;;;18.60;;
26484;SDS011;18083;50.560;7.262;2024-01-30T07:26:52;27.20;;;18.37;;
26484;SDS011;18083;50.560;7.262;2024-01-30T07:29:20;26.37;;;18.07;;
26484;SDS011;18083;50.560;7.262;2024-01-30T07:31:48;26.20;;;17.17;;
26484;SDS011;18083;50.560;7.262;2024-01-30T07:34:15;28.20;;;18.63;;
26484;SDS011;18083;50.560;7.262;2024-01-30T07:36:43;31.13;;;19.03;;
26484;SDS011;18083;50.560;7.262;2024-01-30T07:39:21;29.50;;;19.97;;
26484;SDS011;18083;50.560;7.262;2024-01-30T07:42:34;26.33;;;16.43;;
26484;SDS011;18083;50.560;7.262;2024-01-30T07:47:08;28.83;;;17.47;;
26484;SDS011;18083;50.560;7.262;2024-01-30T07:49:34;29.13;;;17.60;;
26484;SDS011;18083;50.560;7.262;2024-01-30T07:52:02;29.37;;;19.03;;
26484;SDS011;18083;50.560;7.262;2024-01-30T07:54:34;27.17;;;16.33;;
26484;SDS011;18083;50.560;7.262;2024-01-30T07:57:00;29.97;;;18.73;;
26484;SDS011;18083;50.560;7.262;2024-01-30T07:59:27;30.47;;;20.10;;
26484;SDS011;18083;50.560;7.262;2024-01-30T08:01:54;27.87;;;19.10;;
26484;SDS011;18083;50.560;7.262;2024-01-30T08:04:22;32.57;;;20.43;;
26484;SDS011;18083;50.560;7.262;2024-01-30T08:06:49;32.70;;;19.60;;
26484;SDS011;18083;50.560;7.262;2024-01-30T08:09:17;31.70;;;18.20;;
26484;SDS011;18083;50.560;7.262;2024-01-30T08:14:59;30.80;;;17.57;;
26484;SDS011;18083;50.560;7.262;2024-01-30T08:17:27;28.97;;;17.77;;
26484;SDS011;18083;50.560;7.262;2024-01-30T08:19:54;30.87;;;18.37;;
26484;SDS011;18083;50.560;7.262;2024-01-30T08:25:18;31.53;;;19.10;;
26484;SDS011;18083;50.560;7.262;2024-01-30T08:27:45;26.50;;;17.10;;
26484;SDS011;18083;50.560;7.262;2024-01-30T08:30:13;31.20;;;19.90;;
26484;SDS011;18083;50.560;7.262;2024-01-30T08:32:40;34.37;;;20.00;;
26484;SDS011;18083;50.560;7.262;2024-01-30T08:35:07;27.27;;;16.80;;
26484;SDS011;18083;50.560;7.262;2024-01-30T08:37:35;30.03;;;18.20;;
26484;SDS011;18083;50.560;7.262;2024-01-30T08:40:11;25.93;;;17.67;;
26484;SDS011;18083;50.560;7.262;2024-01-30T08:42:38;39.00;;;21.57;;
26484;SDS011;18083;50.560;7.262;2024-01-30T08:45:07;32.27;;;19.33;;
26484;SDS011;18083;50.560;7.262;2024-01-30T08:47:35;28.00;;;18.87;;
26484;SDS011;18083;50.560;7.262;2024-01-30T08:50:11;30.90;;;19.17;;
26484;SDS011;18083;50.560;7.262;2024-01-30T08:52:46;27.63;;;17.83;;
26484;SDS011;18083;50.560;7.262;2024-01-30T08:55:14;25.47;;;16.30;;
26484;SDS011;18083;50.560;7.262;2024-01-30T08:57:49;28.73;;;16.03;;
26484;SDS011;18083;50.560;7.262;2024-01-30T09:00:24;23.30;;;17.20;;
26484;SDS011;18083;50.560;7.262;2024-01-30T09:02:59;28.83;;;17.63;;
26484;SDS011;18083;50.560;7.262;2024-01-30T09:05:33;28.23;;;16.67;;
26484;SDS011;18083;50.560;7.262;2024-01-30T09:08:09;28.20;;;16.97;;
26484;SDS011;18083;50.560;7.262;2024-01-30T09:10:44;24.90;;;16.83;;
26484;SDS011;18083;50.560;7.262;2024-01-30T09:13:09;26.80;;;16.27;;
26484;SDS011;18083;50.560;7.262;2024-01-30T09:15:40;23.27;;;15.33;;
26484;SDS011;18083;50.560;7.262;2024-01-30T09:18:09;24.17;;;15.40;;
26484;SDS011;18083;50.560;7.262;2024-01-30T09:20:39;24.57;;;15.17;;
26484;SDS011;18083;50.560;7.262;2024-01-30T09:23:08;22.13;;;13.93;;
26484;SDS011;18083;50.560;7.262;2024-01-30T09:25:35;20.80;;;14.30;;
26484;SDS011;18083;50.560;7.262;2024-01-30T09:28:12;23.83;;;15.03;;
26484;SDS011;18083;50.560;7.262;2024-01-30T09:30:41;21.23;;;14.23;;
26484;SDS011;18083;50.560;7.262;2024-01-30T09:33:10;21.43;;;14.53;;
26484;SDS011;18083;50.560;7.262;2024-01-30T09:35:43;21.57;;;15.37;;
26484;SDS011;18083;50.560;7.262;2024-01-30T09:38:14;21.63;;;14.57;;
26484;SDS011;18083;50.560;7.262;2024-01-30T09:40:44;25.97;;;15.03;;
26484;SDS011;18083;50.560;7.262;2024-01-30T09:43:17;21.67;;;14.50;;
26484;SDS011;18083;50.560;7.262;2024-01-30T09:45:48;23.50;;;14.50;;
26484;SDS011;18083;50.560;7.262;2024-01-30T09:48:25;18.33;;;12.90;;
26484;SDS011;18083;50.560;7.262;2024-01-30T09:50:47;20.10;;;12.87;;
26484;SDS011;18083;50.560;7.262;2024-01-30T09:53:17;16.30;;;13.10;;
26484;SDS011;18083;50.560;7.262;2024-01-30T09:55:52;18.43;;;14.43;;
26484;SDS011;18083;50.560;7.262;2024-01-30T09:58:21;19.70;;;12.53;;
26484;SDS011;18083;50.560;7.262;2024-01-30T10:00:48;23.20;;;14.50;;
26484;SDS011;18083;50.560;7.262;2024-01-30T10:03:19;17.00;;;12.47;;
26484;SDS011;18083;50.560;7.262;2024-01-30T10:05:50;21.50;;;13.77;;
26484;SDS011;18083;50.560;7.262;2024-01-30T10:08:15;21.80;;;14.13;;
26484;SDS011;18083;50.560;7.262;2024-01-30T10:10:46;16.97;;;12.67;;
26484;SDS011;18083;50.560;7.262;2024-01-30T10:13:14;20.03;;;12.43;;
26484;SDS011;18083;50.560;7.262;2024-01-30T10:15:41;23.20;;;13.70;;
26484;SDS011;18083;50.560;7.262;2024-01-30T10:18:08;24.20;;;13.37;;
26484;SDS011;18083;50.560;7.262;2024-01-30T10:20:36;23.57;;;14.70;;
26484;SDS011;18083;50.560;7.262;2024-01-30T10:23:03;20.73;;;15.57;;
26484;SDS011;18083;50.560;7.262;2024-01-30T10:25:31;22.97;;;13.10;;
26484;SDS011;18083;50.560;7.262;2024-01-30T10:27:58;20.60;;;13.53;;
26484;SDS011;18083;50.560;7.262;2024-01-30T10:30:26;17.13;;;12.20;;
26484;SDS011;18083;50.560;7.262;2024-01-30T10:32:54;22.83;;;16.07;;
26484;SDS011;18083;50.560;7.262;2024-01-30T10:35:21;22.07;;;12.80;;
26484;SDS011;18083;50.560;7.262;2024-01-30T10:37:49;18.93;;;12.53;;
26484;SDS011;18083;50.560;7.262;2024-01-30T10:40:16;15.13;;;12.27;;
26484;SDS011;18083;50.560;7.262;2024-01-30T10:42:44;24.57;;;14.13;;
26484;SDS011;18083;50.560;7.262;2024-01-30T10:45:14;20.67;;;13.37;;
26484;SDS011;18083;50.560;7.262;2024-01-30T10:47:52;17.53;;;13.60;;
26484;SDS011;18083;50.560;7.262;2024-01-30T10:50:20;16.83;;;12.03;;
26484;SDS011;18083;50.560;7.262;2024-01-30T10:52:47;17.53;;;12.03;;
26484;SDS011;18083;50.560;7.262;2024-01-30T10:55:15;22.83;;;12.63;;
26484;SDS011;18083;50.560;7.262;2024-01-30T10:57:43;23.73;;;13.27;;
26484;SDS011;18083;50.560;7.262;2024-01-30T11:00:11;19.80;;;11.97;;
26484;SDS011;18083;50.560;7.262;2024-01-30T11:02:40;20.07;;;11.30;;
26484;SDS011;18083;50.560;7.262;2024-01-30T11:05:08;15.67;;;11.47;;
26484;SDS011;18083;50.560;7.262;2024-01-30T11:07:35;14.97;;;11.87;;
26484;SDS011;18083;50.560;7.262;2024-01-30T11:10:03;20.17;;;13.03;;
26484;SDS011;18083;50.560;7.262;2024-01-30T11:12:31;15.93;;;11.67;;
26484;SDS011;18083;50.560;7.262;2024-01-30T11:15:02;15.23;;;12.10;;
26484;SDS011;18083;50.560;7.262;2024-01-30T11:20:14;18.80;;;12.10;;
26484;SDS011;18083;50.560;7.262;2024-01-30T11:22:41;16.27;;;11.27;;
26484;SDS011;18083;50.560;7.262;2024-01-30T11:25:13;15.60;;;12.40;;
26484;SDS011;18083;50.560;7.262;2024-01-30T11:27:41;14.63;;;11.17;;
26484;SDS011;18083;50.560;7.262;2024-01-30T11:30:09;16.60;;;12.63;;
26484;SDS011;18083;50.560;7.262;2024-01-30T11:32:37;17.43;;;10.83;;
26484;SDS011;18083;50.560;7.262;2024-01-30T11:35:04;19.50;;;11.93;;
26484;SDS011;18083;50.560;7.262;2024-01-30T11:37:33;17.50;;;9.70;;
26484;SDS011;18083;50.560;7.262;2024-01-30T11:40:02;18.63;;;11.70;;
26484;SDS011;18083;50.560;7.262;2024-01-30T11:42:30;17.43;;;12.33;;
26484;SDS011;18083;50.560;7.262;2024-01-30T11:44:59;18.70;;;12.97;;
26484;SDS011;18083;50.560;7.262;2024-01-30T11:47:27;21.43;;;12.70;;
26484;SDS011;18083;50.560;7.262;2024-01-30T11:49:54;21.83;;;12.80;;
26484;SDS011;18083;50.560;7.262;2024-01-30T11:52:22;20.27;;;12.83;;
26484;SDS011;18083;50.560;7.262;2024-01-30T11:54:49;19.30;;;12.27;;
26484;SDS011;18083;50.560;7.262;2024-01-30T11:57:16;19.50;;;13.27;;
26484;SDS011;18083;50.560;7.262;2024-01-30T11:59:44;22.37;;;13.20;;
26484;SDS011;18083;50.560;7.262;2024-01-30T12:02:15;18.93;;;12.67;;
26484;SDS011;18083;50.560;7.262;2024-01-30T12:04:40;20.00;;;13.43;;
26484;SDS011;18083;50.560;7.262;2024-01-30T12:07:07;20.37;;;13.33;;
26484;SDS011;18083;50.560;7.262;2024-01-30T12:09:34;20.40;;;14.07;;
26484;SDS011;18083;50.560;7.262;2024-01-30T12:12:02;20.23;;;12.77;;
26484;SDS011;18083;50.560;7.262;2024-01-30T12:14:29;17.50;;;12.90;;
26484;SDS011;18083;50.560;7.262;2024-01-30T12:16:56;18.40;;;11.87;;
26484;SDS011;18083;50.560;7.262;2024-01-30T12:19:24;16.17;;;13.00;;
26484;SDS011;18083;50.560;7.262;2024-01-30T12:21:55;15.13;;;11.97;;
26484;SDS011;18083;50.560;7.262;2024-01-30T12:24:23;19.83;;;12.97;;
26484;SDS011;18083;50.560;7.262;2024-01-30T12:26:50;18.50;;;12.20;;
26484;SDS011;18083;50.560;7.262;2024-01-30T12:29:19;17.97;;;11.47;;
26484;SDS011;18083;50.560;7.262;2024-01-30T12:31:48;16.10;;;10.87;;
26484;SDS011;18083;50.560;7.262;2024-01-30T12:34:15;15.07;;;12.10;;
26484;SDS011;18083;50.560;7.262;2024-01-30T12:36:43;15.53;;;12.97;;
26484;SDS011;18083;50.560;7.262;2024-01-30T12:39:11;16.80;;;11.87;;
26484;SDS011;18083;50.560;7.262;2024-01-30T12:41:40;17.67;;;12.23;;
26484;SDS011;18083;50.560;7.262;2024-01-30T12:44:08;17.17;;;11.13;;
26484;SDS011;18083;50.560;7.262;2024-01-30T12:46:35;17.93;;;11.63;;
26484;SDS011;18083;50.560;7.262;2024-01-30T12:49:03;17.23;;;12.33;;
26484;SDS011;18083;50.560;7.262;2024-01-30T12:51:30;15.27;;;11.30;;
26484;SDS011;18083;50.560;7.262;2024-01-30T12:53:57;14.13;;;11.33;;
26484;SDS011;18083;50.560;7.262;2024-01-30T12:56:25;18.00;;;11.83;;
26484;SDS011;18083;50.560;7.262;2024-01-30T12:58:52;15.47;;;11.03;;
26484;SDS011;18083;50.560;7.262;2024-01-30T13:01:19;13.23;;;9.87;;
26484;SDS011;18083;50.560;7.262;2024-01-30T13:03:46;12.73;;;9.50;;
26484;SDS011;18083;50.560;7.262;2024-01-30T13:06:14;14.23;;;10.73;;
26484;SDS011;18083;50.560;7.262;2024-01-30T13:08:41;16.63;;;10.70;;
26484;SDS011;18083;50.560;7.262;2024-01-30T13:11:08;17.83;;;11.20;;
26484;SDS011;18083;50.560;7.262;2024-01-30T13:13:35;13.03;;;9.63;;
26484;SDS011;18083;50.560;7.262;2024-01-30T13:16:03;18.20;;;9.90;;
26484;SDS011;18083;50.560;7.262;2024-01-30T13:18:32;12.60;;;9.67;;
26484;SDS011;18083;50.560;7.262;2024-01-30T13:20:59;21.27;;;10.53;;
26484;SDS011;18083;50.560;7.262;2024-01-30T13:23:26;16.97;;;10.27;;
26484;SDS011;18083;50.560;7.262;2024-01-30T13:25:53;14.53;;;9.90;;
26484;SDS011;18083;50.560;7.262;2024-01-30T13:28:22;15.03;;;10.37;;
26484;SDS011;18083;50.560;7.262;2024-01-30T13:30:50;13.00;;;10.17;;
26484;SDS011;18083;50.560;7.262;2024-01-30T13:33:17;16.40;;;10.50;;
26484;SDS011;18083;50.560;7.262;2024-01-30T13:35:45;16.17;;;9.33;;
26484;SDS011;18083;50.560;7.262;2024-01-30T13:38:12;15.60;;;9.87;;
26484;SDS011;18083;50.560;7.262;2024-01-30T13:40:40;13.87;;;10.67;;
26484;SDS011;18083;50.560;7.262;2024-01-30T13:43:07;14.33;;;9.63;;
26484;SDS011;18083;50.560;7.262;2024-01-30T13:45:34;14.67;;;9.40;;
26484;SDS011;18083;50.560;7.262;2024-01-30T13:48:02;13.93;;;8.40;;
26484;SDS011;18083;50.560;7.262;2024-01-30T13:50:29;12.10;;;8.90;;
26484;SDS011;18083;50.560;7.262;2024-01-30T13:52:57;12.77;;;8.77;;
26484;SDS011;18083;50.560;7.262;2024-01-30T13:55:24;18.43;;;10.60;;
26484;SDS011;18083;50.560;7.262;2024-01-30T13:57:53;14.93;;;9.70;;
26484;SDS011;18083;50.560;7.262;2024-01-30T14:00:22;13.63;;;9.50;;
26484;SDS011;18083;50.560;7.262;2024-01-30T14:02:51;13.83;;;9.77;;
26484;SDS011;18083;50.560;7.262;2024-01-30T14:05:20;10.83;;;8.93;;
26484;SDS011;18083;50.560;7.262;2024-01-30T14:07:48;11.63;;;8.77;;
26484;SDS011;18083;50.560;7.262;2024-01-30T14:10:16;13.13;;;8.90;;
26484;SDS011;18083;50.560;7.262;2024-01-30T14:12:43;16.10;;;9.67;;
26484;SDS011;18083;50.560;7.262;2024-01-30T14:15:11;15.03;;;8.73;;
26484;SDS011;18083;50.560;7.262;2024-01-30T14:17:39;12.83;;;8.97;;
26484;SDS011;18083;50.560;7.262;2024-01-30T14:20:06;14.53;;;8.90;;
26484;SDS011;18083;50.560;7.262;2024-01-30T14:22:34;16.03;;;9.87;;
26484;SDS011;18083;50.560;7.262;2024-01-30T14:25:01;12.77;;;8.70;;
26484;SDS011;18083;50.560;7.262;2024-01-30T14:27:31;12.17;;;9.13;;
26484;SDS011;18083;50.560;7.262;2024-01-30T14:29:59;13.87;;;8.97;;
26484;SDS011;18083;50.560;7.262;2024-01-30T14:32:26;13.00;;;8.37;;
26484;SDS011;18083;50.560;7.262;2024-01-30T14:34:53;17.37;;;8.63;;
26484;SDS011;18083;50.560;7.262;2024-01-30T14:37:21;15.17;;;10.00;;
26484;SDS011;18083;50.560;7.262;2024-01-30T14:39:49;13.43;;;8.43;;
26484;SDS011;18083;50.560;7.262;2024-01-30T14:42:16;13.30;;;8.70;;
26484;SDS011;18083;50.560;7.262;2024-01-30T14:44:43;12.73;;;8.53;;
26484;SDS011;18083;50.560;7.262;2024-01-30T14:47:11;15.20;;;10.10;;
26484;SDS011;18083;50.560;7.262;2024-01-30T14:49:39;11.83;;;7.70;;
26484;SDS011;18083;50.560;7.262;2024-01-30T14:52:06;15.20;;;8.97;;
26484;SDS011;18083;50.560;7.262;2024-01-30T14:54:35;15.30;;;8.97;;
26484;SDS011;18083;50.560;7.262;2024-01-30T14:57:03;15.80;;;8.67;;
26484;SDS011;18083;50.560;7.262;2024-01-30T14:59:30;13.73;;;8.80;;